Time;durP1;ratioP1;P1;durP2;ratioP2;P2;SDS_P1;SDS_P2;PMS_P1;PMS_P2;Temp;Humidity;BMP_temperature;BMP_pressure;BME280_temperature;BME280_humidity;BME280_pressure;Samples;Min_cycle;Max_cycle;Signal;HPM_P1;HPM_P2
2024/02/04 00:00:18;;;;;;;66.47;23.17;;;;;;;10.75;100.00;98799.63;5025517;28;20029;-58
2024/02/04 00:02:43;;;;;;;100.65;85.35;;;;;;;10.92;100.00;98809.31;5027300;28;20034;-60
2024/02/04 00:05:08;;;;;;;95.53;48.85;;;;;;;11.07;100.00;98812.03;5024549;28;20031;-59
2024/02/04 00:07:34;;;;;;;43.90;20.38;;;;;;;10.65;100.00;98803.88;5027607;28;20033;-58
2024/02/04 00:09:59;;;;;;;48.88;19.27;;;;;;;11.33;100.00;98813.97;5027364;28;20025;-57
2024/02/04 00:12:25;;;;;;;216.70;151.05;;;;;;;11.81;100.00;98799.47;5025546;28;20546;-58
2024/02/04 00:14:50;;;;;;;55.15;23.23;;;;;;;11.05;100.00;98800.75;5027835;28;20215;-59
2024/02/04 00:17:16;;;;;;;81.32;46.42;;;;;;;11.83;100.00;98809.03;5026143;28;20033;-59
2024/02/04 00:19:42;;;;;;;168.30;151.48;;;;;;;11.50;100.00;98797.56;5024913;28;20029;-57
2024/02/04 00:22:07;;;;;;;59.78;39.05;;;;;;;10.75;100.00;98804.84;5026576;28;20037;-58
2024/02/04 00:24:33;;;;;;;50.08;42.92;;;;;;;10.81;100.00;98797.06;5025531;28;20029;-58
2024/02/04 00:26:58;;;;;;;89.70;80.70;;;;;;;10.74;100.00;98803.09;5027019;28;20163;-59
2024/02/04 00:29:23;;;;;;;28.73;12.38;;;;;;;11.52;100.00;98802.78;5026553;28;20072;-59
2024/02/04 00:31:49;;;;;;;98.55;85.20;;;;;;;11.82;100.00;98802.09;5023279;28;20048;-59
2024/02/04 00:34:14;;;;;;;57.13;15.25;;;;;;;11.56;100.00;98797.63;5021571;28;20481;-57
2024/02/04 00:36:39;;;;;;;35.28;19.63;;;;;;;10.90;100.00;98787.59;5025242;28;20041;-58
2024/02/04 00:39:07;;;;;;;35.45;15.18;;;;;;;10.28;100.00;98777.44;5025324;28;20048;-57
2024/02/04 00:41:32;;;;;;;36.10;16.55;;;;;;;10.25;100.00;98785.25;5027038;28;20032;-58
2024/02/04 00:43:57;;;;;;;50.40;41.95;;;;;;;10.71;100.00;98782.25;5028895;28;20017;-59
2024/02/04 00:46:23;;;;;;;39.65;26.25;;;;;;;10.63;100.00;98784.78;5025673;28;20045;-57
2024/02/04 00:48:48;;;;;;;50.80;31.55;;;;;;;11.09;100.00;98779.97;5024396;28;20142;-60
2024/02/04 00:51:16;;;;;;;57.00;20.90;;;;;;;11.80;100.00;98780.34;5023188;28;20116;-59
2024/02/04 00:53:42;;;;;;;33.00;22.30;;;;;;;10.64;100.00;98785.66;5026646;28;20032;-58
2024/02/04 00:56:09;;;;;;;214.40;187.10;;;;;;;10.49;100.00;98795.06;5024792;28;20101;-60
2024/02/04 00:58:35;;;;;;;56.50;45.25;;;;;;;10.76;100.00;98783.16;5027934;28;20107;-58
2024/02/04 01:01:01;;;;;;;66.07;53.22;;;;;;;10.40;100.00;98792.34;5026290;28;20048;-59
2024/02/04 01:03:26;;;;;;;133.15;116.43;;;;;;;10.66;100.00;98783.94;5019677;28;20021;-59
2024/02/04 01:05:51;;;;;;;53.25;34.42;;;;;;;10.81;100.00;98781.47;5020954;28;20045;-58
2024/02/04 01:08:17;;;;;;;62.80;24.20;;;;;;;10.70;100.00;98775.31;5021490;28;20117;-58
2024/02/04 01:10:42;;;;;;;66.38;47.60;;;;;;;10.94;100.00;98778.97;5023498;28;20037;-59
2024/02/04 01:13:07;;;;;;;290.52;239.68;;;;;;;11.28;100.00;98783.56;5021545;28;20331;-57
2024/02/04 01:15:33;;;;;;;50.97;16.30;;;;;;;10.23;100.00;98795.63;5020551;28;20524;-59
2024/02/04 01:17:58;;;;;;;41.42;14.02;;;;;;;11.44;100.00;98787.13;5022899;28;20014;-59
2024/02/04 01:20:23;;;;;;;162.88;140.95;;;;;;;10.53;100.00;98789.03;5019371;28;20313;-58
2024/02/04 01:22:49;;;;;;;45.55;15.40;;;;;;;11.38;100.00;98789.69;5022244;28;20045;-60
2024/02/04 01:25:14;;;;;;;131.10;107.45;;;;;;;10.77;100.00;98781.44;5019962;28;20023;-58
2024/02/04 01:27:40;;;;;;;104.38;57.92;;;;;;;10.84;100.00;98784.97;5022397;28;20052;-58
2024/02/04 01:30:05;;;;;;;47.97;28.50;;;;;;;9.82;100.00;98790.78;5021935;28;20033;-57
2024/02/04 01:32:31;;;;;;;38.15;20.13;;;;;;;9.98;100.00;98787.53;5018272;28;20034;-57
2024/02/04 01:34:56;;;;;;;54.92;17.83;;;;;;;10.42;100.00;98775.00;5020355;28;20132;-57
2024/02/04 01:37:22;;;;;;;56.40;32.53;;;;;;;10.29;100.00;98761.88;5020684;28;20068;-59
2024/02/04 01:39:47;;;;;;;71.93;63.17;;;;;;;11.11;100.00;98768.69;5022065;28;20033;-58
2024/02/04 01:42:13;;;;;;;71.65;34.92;;;;;;;10.14;100.00;98767.78;5019499;28;20041;-57
2024/02/04 01:44:38;;;;;;;33.45;15.10;;;;;;;10.60;100.00;98768.25;5021312;28;20029;-59
2024/02/04 01:47:03;;;;;;;171.57;152.63;;;;;;;11.08;100.00;98768.66;5022029;28;20029;-58
2024/02/04 01:49:29;;;;;;;75.28;66.95;;;;;;;10.52;100.00;98761.28;5017230;28;20030;-58
2024/02/04 01:51:56;;;;;;;87.63;68.72;;;;;;;10.46;100.00;98753.41;5020446;28;20168;-59
2024/02/04 01:54:23;;;;;;;68.00;20.52;;;;;;;10.91;100.00;98756.38;5016544;28;20131;-59
2024/02/04 01:56:52;;;;;;;77.45;30.25;;;;;;;10.35;100.00;98752.41;5022500;28;20049;-59
2024/02/04 01:59:19;;;;;;;143.75;107.15;;;;;;;10.24;100.00;98752.31;5016557;28;20169;-57
2024/02/04 02:01:46;;;;;;;90.80;53.90;;;;;;;10.06;100.00;98758.19;5019725;28;20037;-57
2024/02/04 02:04:11;;;;;;;107.50;28.52;;;;;;;10.12;100.00;98753.91;5017910;28;20032;-55
2024/02/04 02:06:41;;;;;;;40.00;15.52;;;;;;;9.81;100.00;98755.28;5021361;28;20240;-55
2024/02/04 02:09:07;;;;;;;57.55;51.58;;;;;;;10.09;100.00;98758.22;5021993;28;20034;-56
2024/02/04 02:11:45;;;;;;;284.83;229.23;;;;;;;10.50;100.00;98749.13;5017126;28;20042;-57
2024/02/04 02:14:16;;;;;;;31.08;12.85;;;;;;;10.26;100.00;98767.06;5021470;28;20567;-57
2024/02/04 02:16:43;;;;;;;29.60;12.38;;;;;;;10.46;100.00;98769.00;5021707;28;20349;-58
2024/02/04 02:19:31;;;;;;;27.63;11.82;;;;;;;10.06;100.00;98752.97;5021548;28;20028;-57
2024/02/04 02:22:02;;;;;;;48.42;33.35;;;;;;;9.81;100.00;98769.16;5024860;28;20036;-56
2024/02/04 02:24:38;;;;;;;70.82;41.25;;;;;;;10.08;100.00;98759.06;5017522;28;20077;-58
2024/02/04 02:27:05;;;;;;;34.92;14.55;;;;;;;10.49;100.00;98762.97;5020664;28;20041;-59
2024/02/04 02:29:32;;;;;;;43.45;26.88;;;;;;;10.15;100.00;98768.66;5021276;28;20109;-59
2024/02/04 02:31:58;;;;;;;31.80;14.05;;;;;;;10.05;100.00;98762.50;5023833;28;20030;-59
2024/02/04 02:34:23;;;;;;;56.53;18.40;;;;;;;10.01;100.00;98761.59;5023556;28;20021;-60
2024/02/04 02:37:15;;;;;;;174.48;156.88;;;;;;;10.35;100.00;98762.81;5024436;28;20052;-59
2024/02/04 02:39:48;;;;;;;199.63;180.20;;;;;;;10.57;100.00;98760.44;5026172;28;20403;-60
2024/02/04 02:42:16;;;;;;;80.75;72.60;;;;;;;10.37;100.00;98767.19;5022506;28;20033;-60
2024/02/04 02:44:43;;;;;;;30.70;13.60;;;;;;;10.49;100.00;98770.75;5024984;28;20025;-58
2024/02/04 02:47:09;;;;;;;101.30;91.40;;;;;;;11.08;100.00;98781.69;5025276;28;20041;-58
2024/02/04 02:49:35;;;;;;;31.77;13.77;;;;;;;10.19;100.00;98780.84;5023986;28;20227;-58
2024/02/04 02:52:00;;;;;;;32.63;11.73;;;;;;;9.77;100.00;98778.63;5025722;28;20033;-58
2024/02/04 02:54:25;;;;;;;47.25;17.92;;;;;;;9.61;100.00;98784.47;5024147;28;20127;-62
2024/02/04 02:56:51;;;;;;;27.70;12.25;;;;;;;9.71;100.00;98788.94;5026062;28;20049;-58
2024/02/04 02:59:16;;;;;;;58.38;15.07;;;;;;;9.33;100.00;98776.31;5024824;28;20017;-60
2024/02/04 03:01:41;;;;;;;32.15;15.00;;;;;;;9.84;100.00;98787.38;5025092;28;20447;-58
2024/02/04 03:04:07;;;;;;;34.13;14.18;;;;;;;10.05;100.00;98782.44;5029192;28;20082;-61
2024/02/04 03:06:32;;;;;;;42.22;13.32;;;;;;;10.05;100.00;98788.47;5023099;28;20061;-58
2024/02/04 03:08:58;;;;;;;35.70;14.52;;;;;;;9.75;100.00;98785.53;5026170;28;20026;-63
2024/02/04 03:11:23;;;;;;;55.85;23.95;;;;;;;9.70;100.00;98774.22;5022262;28;20037;-58
2024/02/04 03:13:48;;;;;;;47.42;33.60;;;;;;;9.76;100.00;98776.00;5025332;28;20028;-60
2024/02/04 03:16:14;;;;;;;43.92;36.53;;;;;;;9.40;100.00;98775.56;5022475;28;20292;-59
2024/02/04 03:18:40;;;;;;;57.95;47.15;;;;;;;9.43;100.00;98770.38;5027361;28;20036;-58
2024/02/04 03:21:16;;;;;;;48.70;31.17;;;;;;;9.20;100.00;98776.13;5023364;28;20548;-60
2024/02/04 03:23:42;;;;;;;36.95;20.08;;;;;;;9.29;100.00;98782.31;5026416;28;20388;-59
2024/02/04 03:26:09;;;;;;;55.22;42.95;;;;;;;9.74;100.00;98769.94;5024684;28;20041;-59
2024/02/04 03:28:35;;;;;;;142.13;128.80;;;;;;;10.63;100.00;98778.72;5023049;28;20120;-59
2024/02/04 03:31:00;;;;;;;45.72;29.27;;;;;;;10.74;100.00;98784.88;5025763;28;20495;-60
2024/02/04 03:33:25;;;;;;;73.30;26.88;;;;;;;10.52;100.00;98771.69;5021142;28;20150;-60
2024/02/04 03:35:51;;;;;;;31.98;10.60;;;;;;;9.83;100.00;98771.78;5023362;28;20072;-59
2024/02/04 03:38:16;;;;;;;43.60;15.73;;;;;;;9.92;100.00;98774.47;5020823;28;20024;-59
2024/02/04 03:40:42;;;;;;;46.88;13.38;;;;;;;10.06;100.00;98776.38;5024225;28;20179;-61
2024/02/04 03:43:08;;;;;;;31.33;13.25;;;;;;;9.89;100.00;98777.91;5024399;28;20056;-61
2024/02/04 03:45:35;;;;;;;33.53;15.65;;;;;;;9.89;100.00;98782.22;5022659;28;20625;-59
2024/02/04 03:48:00;;;;;;;42.15;12.13;;;;;;;10.01;100.00;98787.59;5024236;28;20493;-59
2024/02/04 03:50:26;;;;;;;48.70;11.77;;;;;;;10.76;100.00;98782.31;5017441;28;20060;-61
2024/02/04 03:52:51;;;;;;;49.58;36.03;;;;;;;10.41;100.00;98784.56;5023201;28;20029;-61
2024/02/04 03:55:16;;;;;;;40.15;13.77;;;;;;;9.87;100.00;98781.31;5021988;28;20112;-59
2024/02/04 03:57:42;;;;;;;34.97;12.15;;;;;;;10.52;100.00;98776.00;5026201;28;20165;-59
2024/02/04 04:00:08;;;;;;;30.35;12.57;;;;;;;10.26;100.00;98777.47;5022503;28;20033;-59
2024/02/04 04:02:33;;;;;;;95.90;68.10;;;;;;;10.70;100.00;98784.84;5021360;28;20041;-59
2024/02/04 04:04:58;;;;;;;33.97;13.15;;;;;;;11.32;100.00;98783.56;5024014;28;20021;-58
2024/02/04 04:07:23;;;;;;;116.93;96.70;;;;;;;11.04;100.00;98786.00;5028713;28;20288;-57
2024/02/04 04:09:49;;;;;;;295.45;267.45;;;;;;;10.68;100.00;98779.63;5021080;28;20029;-59
2024/02/04 04:12:14;;;;;;;34.58;13.90;;;;;;;10.70;100.00;98783.13;5021895;28;20095;-59
2024/02/04 04:14:39;;;;;;;32.78;14.95;;;;;;;10.68;100.00;98782.22;5022890;28;20021;-58
2024/02/04 04:17:05;;;;;;;36.58;15.23;;;;;;;10.64;100.00;98788.25;5021907;28;20268;-60
2024/02/04 04:19:32;;;;;;;71.63;35.55;;;;;;;10.23;100.00;98784.34;5023669;28;20033;-59
2024/02/04 04:21:59;;;;;;;86.32;71.88;;;;;;;10.05;100.00;98788.47;5023688;28;20053;-59
2024/02/04 04:24:25;;;;;;;81.55;47.22;;;;;;;10.02;100.00;98781.53;5023160;28;20017;-60
2024/02/04 04:26:50;;;;;;;102.95;92.65;;;;;;;11.30;100.00;98785.31;5022898;28;20048;-58
2024/02/04 04:29:15;;;;;;;58.15;25.13;;;;;;;10.90;100.00;98782.41;5026101;28;20021;-58
2024/02/04 04:31:40;;;;;;;47.92;13.93;;;;;;;10.27;100.00;98771.41;5020784;28;20061;-58
2024/02/04 04:34:06;;;;;;;60.95;51.30;;;;;;;9.89;100.00;98777.91;5027221;28;20056;-57
2024/02/04 04:36:31;;;;;;;65.10;30.33;;;;;;;10.16;100.00;98781.69;5022701;28;20025;-58
2024/02/04 04:38:56;;;;;;;42.05;11.98;;;;;;;9.90;100.00;98771.88;5023399;28;20563;-58
2024/02/04 04:41:22;;;;;;;87.18;67.85;;;;;;;10.49;100.00;98775.97;5018955;28;20029;-58
2024/02/04 04:43:47;;;;;;;79.38;53.67;;;;;;;10.22;100.00;98770.50;5020836;28;20036;-59
2024/02/04 04:46:13;;;;;;;78.45;62.40;;;;;;;10.88;100.00;98764.16;5021528;28;20293;-58
2024/02/04 04:48:38;;;;;;;39.67;15.23;;;;;;;10.05;100.00;98761.63;5022567;28;20033;-59
2024/02/04 04:51:03;;;;;;;120.30;108.28;;;;;;;10.35;100.00;98755.03;5022854;28;20037;-58
2024/02/04 04:53:29;;;;;;;273.05;234.57;;;;;;;10.37;100.00;98750.69;5019320;28;20115;-60
2024/02/04 04:55:54;;;;;;;258.35;233.77;;;;;;;10.92;100.00;98752.91;5022076;28;20095;-59
2024/02/04 04:58:19;;;;;;;68.75;50.17;;;;;;;9.97;100.00;98754.63;5022743;28;20029;-58
2024/02/04 05:00:45;;;;;;;49.42;34.97;;;;;;;9.66;100.00;98754.25;5021784;28;20108;-59
2024/02/04 05:03:10;;;;;;;111.22;98.80;;;;;;;10.53;100.00;98752.63;5024250;28;20705;-58
2024/02/04 05:05:36;;;;;;;185.82;166.68;;;;;;;9.88;100.00;98747.56;5021545;28;20102;-57
2024/02/04 05:08:01;;;;;;;44.63;18.77;;;;;;;10.03;100.00;98744.28;5019086;28;20495;-60
2024/02/04 05:10:26;;;;;;;113.18;91.97;;;;;;;9.75;100.00;98743.09;5020296;28;20108;-59
2024/02/04 05:12:52;;;;;;;64.50;46.35;;;;;;;9.93;100.00;98755.44;5026024;28;20024;-57
2024/02/04 05:15:17;;;;;;;75.35;67.63;;;;;;;9.86;100.00;98759.69;5020800;28;20115;-58
2024/02/04 05:17:42;;;;;;;34.63;13.40;;;;;;;11.02;100.00;98753.84;5020123;28;20033;-56
2024/02/04 05:20:08;;;;;;;56.95;40.90;;;;;;;10.22;100.00;98749.69;5021049;28;20412;-61
2024/02/04 05:22:34;;;;;;;95.03;76.47;;;;;;;9.63;100.00;98743.81;5019524;28;20041;-57
2024/02/04 05:24:59;;;;;;;38.90;18.13;;;;;;;9.97;100.00;98748.53;5021979;28;20079;-57
2024/02/04 05:27:24;;;;;;;61.97;25.88;;;;;;;9.79;100.00;98746.63;5019897;28;20033;-57
2024/02/04 05:29:50;;;;;;;61.47;52.33;;;;;;;10.49;100.00;98755.16;5020943;28;20020;-58
2024/02/04 05:32:15;;;;;;;36.42;13.43;;;;;;;10.73;100.00;98740.63;5019334;28;20025;-57
2024/02/04 05:34:40;;;;;;;92.72;82.88;;;;;;;9.83;100.00;98745.78;5020047;28;21676;-59
2024/02/04 05:37:06;;;;;;;76.55;68.75;;;;;;;9.89;100.00;98743.25;5021337;28;20099;-56
2024/02/04 05:39:31;;;;;;;81.45;24.88;;;;;;;10.08;100.00;98733.94;5023952;28;20037;-59
2024/02/04 05:41:57;;;;;;;54.38;12.90;;;;;;;10.39;100.00;98741.16;5023265;28;20091;-59
2024/02/04 05:44:22;;;;;;;33.83;14.90;;;;;;;10.65;100.00;98735.38;5021404;28;20060;-59
2024/02/04 05:46:47;;;;;;;37.90;12.30;;;;;;;10.50;100.00;98741.31;5022378;28;20490;-61
2024/02/04 05:49:13;;;;;;;48.08;17.77;;;;;;;10.40;100.00;98735.97;5020834;28;20036;-59
2024/02/04 05:51:40;;;;;;;168.98;111.22;;;;;;;10.31;100.00;98737.63;5021614;28;20092;-60
2024/02/04 05:54:06;;;;;;;46.70;29.27;;;;;;;9.83;100.00;98738.00;5023742;28;20778;-59
2024/02/04 05:56:31;;;;;;;71.05;14.95;;;;;;;10.09;100.00;98732.22;5020492;28;20041;-62
2024/02/04 05:58:56;;;;;;;89.45;79.47;;;;;;;10.71;100.00;98734.53;5021864;28;20168;-61
2024/02/04 06:01:22;;;;;;;59.10;43.67;;;;;;;10.16;100.00;98736.59;5020603;28;20041;-61
2024/02/04 06:03:47;;;;;;;191.95;172.45;;;;;;;9.79;100.00;98728.44;5021503;28;20030;-60
2024/02/04 06:06:18;;;;;;;82.00;66.47;;;;;;;10.20;100.00;98732.34;5023593;28;20044;-59
2024/02/04 06:08:43;;;;;;;83.15;74.45;;;;;;;10.36;100.00;98751.56;5020440;28;20202;-62
2024/02/04 06:11:12;;;;;;;169.95;120.00;;;;;;;9.53;100.00;98741.97;5021682;28;20057;-60
2024/02/04 06:13:42;;;;;;;82.07;39.42;;;;;;;9.55;100.00;98729.84;5019892;28;20021;-59
2024/02/04 06:16:08;;;;;;;67.30;36.28;;;;;;;9.83;100.00;98732.81;5015747;28;20037;-59
2024/02/04 06:18:36;;;;;;;69.60;13.95;;;;;;;9.21;100.00;98732.88;5021195;28;20040;-62
2024/02/04 06:21:02;;;;;;;44.42;14.30;;;;;;;9.93;100.00;98731.16;5023272;28;20040;-60
2024/02/04 06:23:27;;;;;;;67.82;16.42;;;;;;;9.62;100.00;98729.09;5018626;28;20020;-59
2024/02/04 06:25:52;;;;;;;110.70;92.65;;;;;;;9.91;100.00;98723.34;5021993;28;20749;-60
2024/02/04 06:28:17;;;;;;;52.30;13.95;;;;;;;9.32;100.00;98730.44;5022052;28;20040;-59
2024/02/04 06:30:43;;;;;;;79.53;18.85;;;;;;;9.49;100.00;98733.25;5019934;28;20044;-60
2024/02/04 06:33:08;;;;;;;226.73;203.30;;;;;;;9.81;100.00;98735.38;5024320;28;20480;-58
2024/02/04 06:35:33;;;;;;;90.63;36.25;;;;;;;9.74;100.00;98739.63;5024363;28;20499;-58
2024/02/04 06:37:59;;;;;;;203.20;167.77;;;;;;;10.06;100.00;98732.19;5022640;28;20029;-59
2024/02/04 06:40:24;;;;;;;183.68;165.05;;;;;;;9.36;100.00;98743.47;5019149;28;20255;-59
2024/02/04 06:42:50;;;;;;;81.68;71.57;;;;;;;9.12;100.00;98741.41;5022504;28;20354;-58
2024/02/04 06:45:15;;;;;;;114.00;101.38;;;;;;;9.67;100.00;98740.41;5023458;28;20482;-57
2024/02/04 06:47:44;;;;;;;52.00;12.90;;;;;;;8.85;100.00;98743.63;5024071;28;20021;-57
2024/02/04 06:50:13;;;;;;;44.33;24.67;;;;;;;9.11;100.00;98742.25;5021702;28;20477;-56
2024/02/04 06:52:48;;;;;;;47.22;14.40;;;;;;;9.56;100.00;98747.19;5023950;28;20037;-57
2024/02/04 06:55:13;;;;;;;37.20;12.10;;;;;;;9.69;100.00;98750.81;5025262;28;20083;-56
2024/02/04 06:57:40;;;;;;;87.28;61.45;;;;;;;9.10;100.00;98745.69;5023602;28;20060;-57
2024/02/04 07:00:07;;;;;;;96.95;86.60;;;;;;;9.52;100.00;98746.28;5023922;28;20217;-59
2024/02/04 07:02:33;;;;;;;53.17;14.77;;;;;;;9.10;100.00;98743.09;5018672;28;20455;-58
2024/02/04 07:04:58;;;;;;;74.93;61.70;;;;;;;9.07;100.00;98743.06;5020493;28;20017;-57
2024/02/04 07:07:24;;;;;;;90.78;81.70;;;;;;;10.05;100.00;98741.69;5022857;28;20078;-57
2024/02/04 07:09:49;;;;;;;43.47;30.30;;;;;;;9.09;100.00;98741.34;5021694;28;20144;-57
2024/02/04 07:12:14;;;;;;;74.25;57.20;;;;;;;8.87;100.00;98751.38;5022894;28;20477;-56
2024/02/04 07:14:39;;;;;;;50.75;15.60;;;;;;;9.44;100.00;98743.59;5027445;28;20433;-56
2024/02/04 07:17:05;;;;;;;28.92;12.32;;;;;;;9.38;100.00;98753.88;5025470;28;20326;-55
2024/02/04 07:19:30;;;;;;;52.97;17.65;;;;;;;9.33;100.00;98745.16;5025035;28;20493;-56
2024/02/04 07:21:55;;;;;;;86.85;78.03;;;;;;;9.36;100.00;98753.00;5026696;28;20468;-57
2024/02/04 07:24:21;;;;;;;35.50;13.85;;;;;;;9.54;100.00;98747.16;5027424;28;20033;-58
2024/02/04 07:26:46;;;;;;;48.30;26.00;;;;;;;10.62;100.00;98737.94;5022280;28;20554;-57
2024/02/04 07:29:15;;;;;;;35.60;11.93;;;;;;;9.72;100.00;98732.66;5018090;28;20090;-56
2024/02/04 07:31:40;;;;;;;38.35;17.73;;;;;;;9.16;100.00;98722.41;5023998;28;20056;-60
2024/02/04 07:34:05;;;;;;;37.35;22.13;;;;;;;9.61;100.00;98724.72;5027942;28;20060;-56
2024/02/04 07:36:31;;;;;;;45.88;33.30;;;;;;;9.65;100.00;98729.09;5026834;28;20037;-54
2024/02/04 07:38:56;;;;;;;39.30;19.50;;;;;;;9.20;100.00;98729.41;5027248;28;20037;-56
2024/02/04 07:41:22;;;;;;;32.63;28.70;;;;;;;10.40;100.00;98724.72;5025535;28;20219;-56
2024/02/04 07:43:48;;;;;;;34.58;11.93;;;;;;;10.21;100.00;98732.31;5024921;28;20556;-57
2024/02/04 07:46:14;;;;;;;72.78;58.20;;;;;;;10.46;100.00;98739.53;5027985;28;20446;-57
2024/02/04 07:48:39;;;;;;;68.18;47.38;;;;;;;10.12;100.00;98740.03;5024334;28;20459;-56
2024/02/04 07:51:04;;;;;;;116.95;105.75;;;;;;;10.16;100.00;98739.22;5022532;28;20036;-55
2024/02/04 07:53:30;;;;;;;61.20;45.95;;;;;;;9.92;100.00;98738.09;5023720;28;20036;-56
2024/02/04 07:55:55;;;;;;;94.82;83.80;;;;;;;10.56;100.00;98730.97;5023564;28;20105;-57
2024/02/04 07:58:21;;;;;;;38.13;23.35;;;;;;;9.83;100.00;98727.63;5023570;28;20040;-55
2024/02/04 08:00:46;;;;;;;82.43;67.88;;;;;;;9.94;100.00;98727.72;5019698;28;20048;-55
2024/02/04 08:03:12;;;;;;;45.33;38.22;;;;;;;10.11;100.00;98725.28;5028219;28;20079;-56
2024/02/04 08:05:37;;;;;;;304.45;274.73;;;;;;;9.79;100.00;98728.44;5024613;28;20045;-58
2024/02/04 08:08:03;;;;;;;117.43;106.57;;;;;;;10.25;100.00;98728.91;5026664;28;20368;-56
2024/02/04 08:10:29;;;;;;;31.02;19.10;;;;;;;9.69;100.00;98728.28;5026170;28;20209;-55
2024/02/04 08:12:54;;;;;;;30.50;19.63;;;;;;;9.91;100.00;98728.53;5026676;28;20401;-57
2024/02/04 08:15:20;;;;;;;119.90;107.57;;;;;;;10.23;100.00;98720.22;5025067;28;20043;-56
2024/02/04 08:17:45;;;;;;;253.18;230.93;;;;;;;10.42;100.00;98729.06;5024709;28;20096;-57
2024/02/04 08:20:11;;;;;;;186.98;167.00;;;;;;;10.60;100.00;98730.13;5027120;28;20366;-57
2024/02/04 08:22:37;;;;;;;46.03;14.15;;;;;;;9.96;100.00;98731.19;5024686;28;20021;-56
2024/02/04 08:25:04;;;;;;;42.83;35.15;;;;;;;10.74;100.00;98737.16;5024876;28;20025;-57
2024/02/04 08:27:29;;;;;;;116.97;105.10;;;;;;;10.97;100.00;98733.84;4996516;28;20168;-58
2024/02/04 08:29:55;;;;;;;115.47;103.18;;;;;;;10.56;100.00;98733.56;4998122;28;20121;-56
2024/02/04 08:32:20;;;;;;;70.18;62.00;;;;;;;10.48;100.00;98730.91;5002577;28;20389;-59
2024/02/04 08:34:46;;;;;;;60.08;45.40;;;;;;;10.51;100.00;98724.84;5000170;28;20482;-58
2024/02/04 08:37:11;;;;;;;41.70;37.08;;;;;;;10.65;100.00;98728.44;4997748;28;20734;-58
2024/02/04 08:39:36;;;;;;;59.30;33.60;;;;;;;11.71;100.00;98733.41;4994942;28;20033;-58
2024/02/04 08:42:02;;;;;;;34.22;20.95;;;;;;;10.51;100.00;98725.69;4994218;28;20038;-58
2024/02/04 08:44:27;;;;;;;185.63;165.77;;;;;;;11.10;100.00;98733.06;4998539;28;20031;-59
2024/02/04 08:46:53;;;;;;;232.98;211.60;;;;;;;11.19;100.00;98730.56;4992234;28;20433;-57
2024/02/04 08:49:18;;;;;;;74.30;66.50;;;;;;;11.40;100.00;98730.66;4999402;28;20030;-58
2024/02/04 08:51:43;;;;;;;90.55;76.93;;;;;;;11.41;100.00;98729.78;4993752;28;20053;-58
2024/02/04 08:54:08;;;;;;;65.88;57.75;;;;;;;11.05;100.00;98735.66;4996830;28;20049;-57
2024/02/04 08:56:34;;;;;;;42.05;16.98;;;;;;;11.43;100.00;98728.09;4994099;28;20038;-58
2024/02/04 08:59:01;;;;;;;35.38;11.63;;;;;;;10.65;100.00;98732.78;4995583;28;20549;-58
2024/02/04 09:01:27;;;;;;;34.17;22.85;;;;;;;10.85;100.00;98740.75;4999182;28;20099;-58
2024/02/04 09:03:52;;;;;;;31.27;9.95;;;;;;;11.77;100.00;98745.59;4994703;28;20022;-57
2024/02/04 09:06:18;;;;;;;101.03;91.68;;;;;;;11.72;100.00;98742.97;4993842;28;20318;-58
2024/02/04 09:08:43;;;;;;;207.57;185.57;;;;;;;11.97;100.00;98745.66;4997804;28;20034;-58
2024/02/04 09:11:09;;;;;;;35.22;8.85;;;;;;;12.70;100.00;98747.56;4995927;28;20461;-59
2024/02/04 09:13:34;;;;;;;70.82;55.40;;;;;;;12.30;100.00;98751.88;4994814;28;20025;-58
2024/02/04 09:15:59;;;;;;;66.60;50.38;;;;;;;12.79;100.00;98744.06;4999017;28;20090;-58
2024/02/04 09:18:24;;;;;;;157.10;133.32;;;;;;;12.20;100.00;98732.72;5000731;28;20180;-58
2024/02/04 09:20:50;;;;;;;53.13;24.48;;;;;;;11.99;100.00;98723.06;4995754;28;20109;-57
2024/02/04 09:23:15;;;;;;;48.83;29.08;;;;;;;11.49;100.00;98727.22;4994409;28;20108;-59
2024/02/04 09:25:41;;;;;;;60.90;25.38;;;;;;;11.55;100.00;98722.06;4994910;28;20039;-59
2024/02/04 09:28:06;;;;;;;269.63;243.07;;;;;;;11.70;100.00;98722.09;4996603;28;20022;-58
2024/02/04 09:30:32;;;;;;;116.53;104.03;;;;;;;11.75;100.00;98721.25;4997412;28;20069;-58
2024/02/04 09:32:57;;;;;;;236.07;211.13;;;;;;;11.38;100.00;98719.34;4999479;28;20053;-57
2024/02/04 09:35:23;;;;;;;133.32;121.78;;;;;;;11.63;100.00;98720.34;4995105;28;20034;-57
2024/02/04 09:37:48;;;;;;;116.90;101.78;;;;;;;11.80;100.00;98715.19;5000572;28;20634;-59
2024/02/04 09:40:14;;;;;;;55.53;48.88;;;;;;;11.68;100.00;98703.00;4997773;28;20482;-58
2024/02/04 09:42:40;;;;;;;76.43;68.15;;;;;;;11.72;100.00;98714.28;4998632;28;20026;-58
2024/02/04 09:45:06;;;;;;;156.40;142.55;;;;;;;11.80;100.00;98704.75;4994099;28;20030;-58
2024/02/04 09:47:34;;;;;;;97.35;77.03;;;;;;;12.48;100.00;98706.66;5002338;28;20024;-56
2024/02/04 09:49:59;;;;;;;229.85;200.48;;;;;;;12.07;100.00;98699.66;4999467;28;20034;-57
2024/02/04 09:52:33;;;;;;;118.82;106.13;;;;;;;11.30;100.00;98701.97;4998989;28;20372;-60
2024/02/04 09:55:05;;;;;;;138.25;109.63;;;;;;;11.27;100.00;98707.16;4996674;28;20033;-59
2024/02/04 09:57:32;;;;;;;141.07;127.65;;;;;;;11.21;100.00;98707.09;5019487;28;20041;-61
2024/02/04 09:59:58;;;;;;;183.02;165.52;;;;;;;12.26;100.00;98715.34;5020848;28;20037;-59
2024/02/04 10:02:24;;;;;;;28.70;23.90;;;;;;;11.89;100.00;98709.16;5019681;28;20068;-59
2024/02/04 10:04:49;;;;;;;149.85;135.10;;;;;;;11.31;100.00;98708.03;5020710;28;20029;-58
2024/02/04 10:07:17;;;;;;;45.17;38.63;;;;;;;12.08;100.00;98707.50;5019871;28;20144;-58
2024/02/04 10:09:43;;;;;;;80.05;72.10;;;;;;;12.23;100.00;98708.38;5022654;28;20028;-58
2024/02/04 10:12:09;;;;;;;109.75;99.85;;;;;;;12.44;100.00;98696.22;5022988;28;20853;-59
2024/02/04 10:14:35;;;;;;;50.70;40.08;;;;;;;13.42;100.00;98696.06;5023190;28;20505;-59
2024/02/04 10:17:00;;;;;;;335.35;272.45;;;;;;;12.11;100.00;98698.81;5020716;28;20606;-59
2024/02/04 10:19:26;;;;;;;197.05;167.88;;;;;;;12.50;100.00;98698.81;5023851;28;20028;-58
2024/02/04 10:22:01;;;;;;;75.07;50.55;;;;;;;12.38;100.00;98697.09;5020846;28;20187;-58
2024/02/04 10:24:28;;;;;;;298.40;268.80;;;;;;;11.89;100.00;98685.69;5021977;28;20025;-57
2024/02/04 10:26:54;;;;;;;48.63;23.00;;;;;;;11.97;100.00;98683.97;5021395;28;20049;-59
2024/02/04 10:29:20;;;;;;;167.73;150.38;;;;;;;11.65;100.00;98676.91;5022799;28;20063;-57
2024/02/04 10:31:45;;;;;;;164.95;146.23;;;;;;;12.41;100.00;98671.00;5018839;28;20038;-58
2024/02/04 10:34:10;;;;;;;257.70;229.73;;;;;;;12.75;100.00;98675.34;5021600;28;20048;-57
2024/02/04 10:36:36;;;;;;;384.67;249.30;;;;;;;12.49;100.00;98681.44;5020223;28;20545;-57
2024/02/04 10:39:01;;;;;;;23.92;12.55;;;;;;;11.77;100.00;98677.84;5019908;28;20541;-57
2024/02/04 10:41:29;;;;;;;35.45;16.90;;;;;;;11.64;100.00;98676.91;5019795;28;20560;-59
2024/02/04 10:43:56;;;;;;;78.85;70.97;;;;;;;12.59;100.00;98672.72;5020343;28;20048;-58
2024/02/04 10:46:25;;;;;;;120.97;109.45;;;;;;;12.71;100.00;98676.22;5018940;28;20046;-57
2024/02/04 10:48:56;;;;;;;215.13;194.45;;;;;;;14.09;100.00;98667.00;5022535;28;20027;-57
2024/02/04 10:51:26;;;;;;;43.00;34.55;;;;;;;12.27;100.00;98660.56;5026114;28;20187;-58
2024/02/04 10:53:53;;;;;;;328.60;294.90;;;;;;;12.22;100.00;98651.88;5026429;28;20487;-58
2024/02/04 10:56:25;;;;;;;85.63;77.22;;;;;;;13.57;100.00;98642.91;5025620;28;20533;-57
2024/02/04 10:58:52;;;;;;;40.15;12.18;;;;;;;13.46;100.00;98657.72;5024201;28;20481;-57
2024/02/04 11:01:18;;;;;;;92.68;83.95;;;;;;;11.54;100.00;98653.44;5025838;28;20037;-57